createdAt,value
2017-02-04T00:00:48.006Z,8.35
2017-02-04T00:01:47.987Z,8.42
2017-02-04T00:02:47.966Z,8.36
2017-02-04T00:03:47.956Z,8.36
2017-02-04T00:04:47.928Z,8.47
2017-02-04T00:05:47.920Z,8.42
2017-02-04T00:06:47.890Z,8.45
2017-02-04T00:07:47.879Z,8.4
2017-02-04T00:08:47.471Z,8.4
2017-02-04T00:09:47.841Z,8.42
2017-02-04T00:10:47.823Z,8.35
2017-02-04T00:11:48.009Z,8.48
2017-02-04T00:12:47.788Z,8.54
2017-02-04T00:13:47.768Z,8.55
2017-02-04T00:14:47.757Z,8.58
2017-02-04T00:15:47.738Z,8.62
2017-02-04T00:16:47.724Z,8.6
2017-02-04T00:17:47.703Z,8.6
2017-02-04T00:18:47.686Z,8.58
2017-02-04T00:19:47.668Z,8.69
2017-02-04T00:20:47.649Z,8.6
2017-02-04T00:21:47.642Z,8.65
2017-02-04T00:22:47.615Z,8.68
2017-02-04T00:23:47.200Z,8.58
2017-02-04T00:24:47.582Z,8.62
2017-02-04T00:25:47.565Z,8.57
2017-02-04T00:26:47.560Z,8.6
2017-02-04T00:27:47.530Z,8.63
2017-02-04T00:28:47.514Z,8.71
2017-02-04T00:29:47.500Z,8.69
2017-02-04T00:30:47.477Z,8.71
2017-02-04T00:31:47.465Z,8.75
2017-02-04T00:32:47.443Z,8.78
2017-02-04T00:33:47.425Z,8.73
2017-02-04T00:34:47.414Z,8.76
2017-02-04T00:35:47.444Z,8.71
2017-02-04T00:36:47.380Z,8.73
2017-02-04T00:37:47.358Z,8.73
2017-02-04T00:38:47.343Z,8.68
2017-02-04T00:39:47.331Z,8.73
2017-02-04T00:40:47.307Z,8.78
2017-02-04T00:41:47.291Z,8.73
2017-02-04T00:42:47.275Z,8.79
2017-02-04T00:43:47.266Z,8.87
2017-02-04T00:44:47.244Z,8.94
2017-02-04T00:45:47.223Z,8.9
2017-02-04T00:46:47.209Z,8.9
2017-02-04T00:47:46.816Z,8.87
2017-02-04T00:48:47.190Z,8.83
2017-02-04T00:49:47.163Z,8.9
2017-02-04T00:50:47.147Z,8.9
2017-02-04T00:51:47.123Z,8.94
2017-02-04T00:52:47.109Z,8.96
2017-02-04T00:53:47.087Z,8.91
2017-02-04T00:54:46.289Z,8.93
2017-02-04T00:55:47.062Z,8.91
2017-02-04T00:56:47.043Z,8.9
2017-02-04T00:57:47.023Z,8.93
2017-02-04T00:58:47.006Z,8.93
2017-02-04T00:59:46.988Z,8.86
2017-02-04T01:00:46.973Z,8.87
2017-02-04T01:01:46.953Z,8.83
2017-02-04T01:02:46.939Z,8.86
2017-02-04T01:03:46.524Z,8.87
2017-02-04T01:04:46.509Z,8.83
2017-02-04T01:05:46.886Z,8.88
2017-02-04T01:06:46.869Z,8.84
2017-02-04T01:07:46.852Z,8.79
2017-02-04T01:08:46.836Z,8.87
2017-02-04T01:09:46.831Z,8.87
2017-02-04T01:10:46.810Z,8.83
2017-02-04T01:11:46.785Z,8.81
2017-02-04T01:12:46.764Z,8.83
2017-02-04T01:13:46.755Z,8.88
2017-02-04T01:14:46.732Z,8.88
2017-02-04T01:15:46.721Z,8.84
2017-02-04T01:16:46.705Z,8.86
2017-02-04T01:17:46.683Z,8.9
2017-02-04T01:18:46.668Z,8.83
2017-02-04T01:19:46.252Z,8.79
2017-02-04T01:20:46.634Z,8.88
2017-02-04T01:21:46.615Z,8.76
2017-02-04T01:22:46.204Z,8.87
2017-02-04T01:23:46.582Z,8.87
2017-02-04T01:24:46.560Z,8.84
2017-02-04T01:25:46.549Z,8.83
2017-02-04T01:26:46.531Z,8.78
2017-02-04T01:27:46.512Z,8.86
2017-02-04T01:28:46.496Z,8.78
2017-02-04T01:29:46.477Z,8.84
2017-02-04T01:30:46.460Z,8.86
2017-02-04T01:31:46.444Z,8.88
2017-02-04T01:32:46.427Z,8.93
2017-02-04T01:33:46.021Z,8.93
2017-02-04T01:34:46.399Z,8.93
2017-02-04T01:35:46.378Z,8.96
2017-02-04T01:36:46.361Z,8.94
2017-02-04T01:37:46.342Z,8.97
2017-02-04T01:38:46.330Z,9.02
2017-02-04T01:39:46.310Z,9.02
2017-02-04T01:40:46.294Z,9.06
2017-02-04T01:41:46.274Z,8.97
2017-02-04T01:42:46.261Z,8.97
2017-02-04T01:43:46.239Z,8.97
2017-02-04T01:44:46.224Z,9.06
2017-02-04T01:45:45.810Z,9.09
2017-02-04T01:46:46.190Z,8.93
2017-02-04T01:47:46.172Z,9.1
2017-02-04T01:48:46.179Z,9.05
2017-02-04T01:49:45.348Z,9.02
2017-02-04T01:50:46.136Z,9.09
2017-02-04T01:51:46.117Z,9.12
2017-02-04T01:52:45.703Z,9.09
2017-02-04T01:53:46.072Z,9.13
2017-02-04T01:54:46.059Z,9.09
2017-02-04T01:55:46.043Z,9.12
2017-02-04T01:56:46.029Z,9.15
2017-02-04T01:57:46.011Z,9.12
2017-02-04T01:58:45.990Z,9.13
2017-02-04T01:59:45.980Z,9.15
2017-02-04T02:00:45.954Z,9.16
2017-02-04T02:01:45.544Z,9.16
2017-02-04T02:02:45.931Z,9.16
2017-02-04T02:03:45.528Z,9.15
2017-02-04T02:04:45.914Z,9.18
2017-02-04T02:05:45.889Z,9.09
2017-02-04T02:06:45.866Z,9.1
2017-02-04T02:07:45.913Z,9.15
2017-02-04T02:08:45.831Z,9.16
2017-02-04T02:09:45.809Z,9.12
2017-02-04T02:10:45.789Z,9.13
2017-02-04T02:11:45.972Z,9.18
2017-02-04T02:12:45.750Z,9.18
2017-02-04T02:13:45.736Z,9.2
2017-02-04T02:14:45.718Z,9.24
2017-02-04T02:15:45.703Z,9.23
2017-02-04T02:16:45.685Z,9.24
2017-02-04T02:17:45.670Z,9.2
2017-02-04T02:18:45.651Z,9.21
2017-02-04T02:19:45.635Z,9.28
2017-02-04T02:20:45.617Z,9.2
2017-02-04T02:21:45.604Z,9.2
2017-02-04T02:22:45.583Z,9.18
2017-02-04T02:23:45.570Z,9.23
2017-02-04T02:24:45.550Z,9.28
2017-02-04T02:25:45.534Z,9.2
2017-02-04T02:26:45.124Z,9.15
2017-02-04T02:27:45.503Z,9.1
2017-02-04T02:28:45.483Z,9.09
2017-02-04T02:29:45.067Z,9.13
2017-02-04T02:30:45.447Z,9.02
2017-02-04T02:31:45.431Z,9.1
2017-02-04T02:32:45.414Z,9.01
2017-02-04T02:33:45.397Z,8.9
2017-02-04T02:34:45.382Z,8.88
2017-02-04T02:35:45.364Z,8.94
2017-02-04T02:36:45.344Z,8.93
2017-02-04T02:37:45.328Z,8.91
2017-02-04T02:38:45.308Z,8.86
2017-02-04T02:39:45.300Z,8.91
2017-02-04T02:40:45.289Z,8.96
2017-02-04T02:41:44.867Z,8.96
2017-02-04T02:42:45.239Z,8.94
2017-02-04T02:43:44.828Z,8.93
2017-02-04T02:44:45.209Z,8.84
2017-02-04T02:45:44.797Z,8.9
2017-02-04T02:46:45.175Z,8.94
2017-02-04T02:47:45.159Z,8.96
2017-02-04T02:48:45.140Z,8.96
2017-02-04T02:49:44.724Z,8.97
2017-02-04T02:50:45.101Z,8.94
2017-02-04T02:51:45.087Z,8.97
2017-02-04T02:52:45.067Z,8.81
2017-02-04T02:53:45.063Z,8.81
2017-02-04T02:54:44.639Z,8.87
2017-02-04T02:55:44.619Z,8.81
2017-02-04T02:56:44.999Z,8.72
2017-02-04T02:57:44.977Z,8.69
2017-02-04T02:58:44.566Z,8.65
2017-02-04T02:59:44.949Z,8.58
2017-02-04T03:00:44.932Z,8.54
2017-02-04T03:01:44.907Z,8.48
2017-02-04T03:02:44.898Z,8.36
2017-02-04T03:03:44.874Z,8.32
2017-02-04T03:04:44.864Z,8.3
2017-02-04T03:05:44.843Z,8.37
2017-02-04T03:06:44.825Z,8.3
2017-02-04T03:07:44.805Z,8.22
2017-02-04T03:08:44.792Z,8.12
2017-02-04T03:09:44.374Z,8.15
2017-02-04T03:10:44.361Z,8.08
2017-02-04T03:11:44.740Z,8.03
2017-02-04T03:12:44.719Z,8.02
2017-02-04T03:13:44.719Z,7.99
2017-02-04T03:14:44.695Z,8.02
2017-02-04T03:15:44.671Z,8.02
2017-02-04T03:16:44.648Z,7.92
2017-02-04T03:17:44.235Z,7.9
2017-02-04T03:18:44.614Z,7.85
2017-02-04T03:19:44.594Z,7.85
2017-02-04T03:20:44.572Z,7.84
2017-02-04T03:21:44.556Z,7.79
2017-02-04T03:22:44.537Z,7.77
2017-02-04T03:23:44.517Z,7.78
2017-02-04T03:24:44.105Z,7.71
2017-02-04T03:25:44.485Z,7.82
2017-02-04T03:26:44.466Z,7.72
2017-02-04T03:27:44.447Z,7.67
2017-02-04T03:28:44.426Z,7.75
2017-02-04T03:29:44.410Z,7.71
2017-02-04T03:30:44.390Z,7.82
2017-02-04T03:31:44.377Z,7.71
2017-02-04T03:32:44.360Z,7.74
2017-02-04T03:33:44.341Z,7.72
2017-02-04T03:34:44.326Z,7.77
2017-02-04T03:35:43.913Z,7.74
2017-02-04T03:36:43.924Z,7.78
2017-02-04T03:37:44.269Z,7.78
2017-02-04T03:38:44.270Z,7.71
2017-02-04T03:39:44.231Z,7.77
2017-02-04T03:40:43.817Z,7.82
2017-02-04T03:41:44.197Z,7.71
2017-02-04T03:42:44.179Z,7.78
2017-02-04T03:43:43.761Z,7.82
2017-02-04T03:44:44.140Z,7.71
2017-02-04T03:45:44.119Z,7.74
2017-02-04T03:46:44.107Z,7.75
2017-02-04T03:47:43.691Z,7.67
2017-02-04T03:48:44.064Z,7.77
2017-02-04T03:49:44.045Z,7.79
2017-02-04T03:50:44.031Z,7.71
2017-02-04T03:51:44.016Z,7.74
2017-02-04T03:52:43.993Z,7.72
2017-02-04T03:53:43.975Z,7.67
2017-02-04T03:54:43.976Z,7.63
2017-02-04T03:55:43.938Z,7.63
2017-02-04T03:56:43.920Z,7.62
2017-02-04T03:57:43.902Z,7.62
2017-02-04T03:58:43.493Z,7.66
2017-02-04T03:59:43.863Z,7.67
2017-02-04T04:00:43.856Z,7.71
2017-02-04T04:01:43.430Z,7.72
2017-02-04T04:02:43.808Z,7.71
2017-02-04T04:03:43.792Z,7.63
2017-02-04T04:04:43.776Z,7.69
2017-02-04T04:05:43.758Z,7.6
2017-02-04T04:06:43.737Z,7.6
2017-02-04T04:07:43.752Z,7.58
2017-02-04T04:08:43.698Z,7.63
2017-02-04T04:09:43.684Z,7.69
2017-02-04T04:10:43.660Z,7.69
2017-02-04T04:11:43.843Z,7.69
2017-02-04T04:12:43.623Z,7.66
2017-02-04T04:13:43.810Z,7.63
2017-02-04T04:14:43.194Z,7.67
2017-02-04T04:15:43.176Z,7.63
2017-02-04T04:16:43.553Z,7.6
2017-02-04T04:17:43.537Z,7.67
2017-02-04T04:18:43.514Z,7.63
2017-02-04T04:19:43.102Z,7.75
2017-02-04T04:20:43.481Z,7.71
2017-02-04T04:21:43.458Z,7.71
2017-02-04T04:22:43.442Z,7.63
2017-02-04T04:23:43.428Z,7.77
2017-02-04T04:24:43.012Z,7.74
2017-02-04T04:25:43.391Z,7.71
2017-02-04T04:26:43.369Z,7.72
2017-02-04T04:27:42.969Z,7.67
2017-02-04T04:28:43.346Z,7.62
2017-02-04T04:29:43.333Z,7.66
2017-02-04T04:30:43.337Z,7.71
2017-02-04T04:31:43.279Z,7.71
2017-02-04T04:32:43.260Z,7.71
2017-02-04T04:33:43.245Z,7.71
2017-02-04T04:34:42.434Z,7.77
2017-02-04T04:35:43.206Z,7.79
2017-02-04T04:36:42.794Z,7.63
2017-02-04T04:37:42.775Z,7.71
2017-02-04T04:38:43.155Z,7.66
2017-02-04T04:39:43.134Z,7.72
2017-02-04T04:40:43.119Z,7.74
2017-02-04T04:41:43.094Z,7.69
2017-02-04T04:42:43.076Z,7.72
2017-02-04T04:43:43.060Z,7.67
2017-02-04T04:44:42.646Z,7.69
2017-02-04T04:45:43.021Z,7.67
2017-02-04T04:46:42.611Z,7.67
2017-02-04T04:47:42.992Z,7.66
2017-02-04T04:48:42.970Z,7.78
2017-02-04T04:49:42.951Z,7.74
2017-02-04T04:50:42.930Z,7.72
2017-02-04T04:51:42.920Z,7.72
2017-02-04T04:52:42.899Z,7.69
2017-02-04T04:53:42.881Z,7.78
2017-02-04T04:54:42.859Z,7.77
2017-02-04T04:55:42.843Z,7.79
2017-02-04T04:56:42.840Z,7.79
2017-02-04T04:57:42.809Z,7.77
2017-02-04T04:58:42.790Z,7.77
2017-02-04T04:59:42.783Z,7.67
2017-02-04T05:00:42.753Z,7.72
2017-02-04T05:01:42.736Z,7.79
2017-02-04T05:02:42.719Z,7.78
2017-02-04T05:03:42.700Z,7.72
2017-02-04T05:04:42.680Z,7.69
2017-02-04T05:05:42.264Z,7.77
2017-02-04T05:06:42.648Z,7.67
2017-02-04T05:07:42.625Z,7.77
2017-02-04T05:08:42.210Z,7.74
2017-02-04T05:09:42.591Z,7.74
2017-02-04T05:10:42.575Z,7.66
2017-02-04T05:11:42.553Z,7.67
2017-02-04T05:12:42.539Z,7.63
2017-02-04T05:13:42.519Z,7.71
2017-02-04T05:14:42.501Z,7.71
2017-02-04T05:15:42.484Z,7.63
2017-02-04T05:16:42.467Z,7.63
2017-02-04T05:17:42.450Z,7.58
2017-02-04T05:18:42.425Z,7.59
2017-02-04T05:19:42.411Z,7.58
2017-02-04T05:20:42.394Z,7.63
2017-02-04T05:21:42.372Z,7.45
2017-02-04T05:22:42.353Z,7.52
2017-02-04T05:23:42.338Z,7.5
2017-02-04T05:24:42.318Z,7.63
2017-02-04T05:25:42.344Z,7.5
2017-02-04T05:26:42.288Z,7.53
2017-02-04T05:27:42.268Z,7.55
2017-02-04T05:28:42.253Z,7.55
2017-02-04T05:29:42.231Z,7.58
2017-02-04T05:30:42.210Z,7.52
2017-02-04T05:31:42.202Z,7.5
2017-02-04T05:32:42.175Z,7.52
2017-02-04T05:33:42.158Z,7.55
2017-02-04T05:34:42.138Z,7.5
2017-02-04T05:35:42.122Z,7.49
2017-02-04T05:36:42.105Z,7.49
2017-02-04T05:37:42.094Z,7.45
2017-02-04T05:38:42.069Z,7.42
2017-02-04T05:39:41.653Z,7.31
2017-02-04T05:40:42.039Z,7.35
2017-02-04T05:41:42.020Z,7.31
2017-02-04T05:42:41.599Z,7.29
2017-02-04T05:43:41.975Z,7.31
2017-02-04T05:44:41.956Z,7.35
2017-02-04T05:45:41.940Z,7.24
2017-02-04T05:46:41.918Z,7.22
2017-02-04T05:47:41.942Z,7.17
2017-02-04T05:48:41.917Z,7.12
2017-02-04T05:49:41.866Z,7.2
2017-02-04T05:50:41.851Z,7.07
2017-02-04T05:51:41.861Z,7.07
2017-02-04T05:52:41.809Z,7.13
2017-02-04T05:53:41.794Z,7.09
2017-02-04T05:54:41.775Z,7.09
2017-02-04T05:55:41.755Z,7.15
2017-02-04T05:56:41.749Z,7.12
2017-02-04T05:57:41.328Z,7.13
2017-02-04T05:58:41.701Z,7.13
2017-02-04T05:59:41.683Z,7.12
2017-02-04T06:00:41.662Z,7.12
2017-02-04T06:01:41.644Z,7.09
2017-02-04T06:02:41.634Z,7.12
2017-02-04T06:03:41.215Z,7.15
2017-02-04T06:04:41.588Z,7.2
2017-02-04T06:05:41.578Z,7.13
2017-02-04T06:06:41.162Z,7.16
2017-02-04T06:07:41.135Z,7.12
2017-02-04T06:08:41.520Z,7.08
2017-02-04T06:09:41.498Z,7.08
2017-02-04T06:10:41.484Z,7.13
2017-02-04T06:11:41.662Z,7.05
2017-02-04T06:12:41.444Z,7.09
2017-02-04T06:13:41.431Z,7.08
2017-02-04T06:14:41.409Z,7.05
2017-02-04T06:15:41.398Z,7.01
2017-02-04T06:16:41.367Z,6.99
2017-02-04T06:17:41.354Z,6.97
2017-02-04T06:18:41.333Z,6.97
2017-02-04T06:19:41.318Z,6.97
2017-02-04T06:20:41.297Z,7.04
2017-02-04T06:21:40.885Z,6.86
2017-02-04T06:22:41.259Z,6.86
2017-02-04T06:23:41.242Z,6.87
2017-02-04T06:24:41.240Z,6.86
2017-02-04T06:25:40.958Z,6.79
2017-02-04T06:26:40.803Z,6.72
2017-02-04T06:27:41.180Z,6.76
2017-02-04T06:28:41.149Z,6.68
2017-02-04T06:29:41.130Z,6.65
2017-02-04T06:30:41.109Z,6.62
2017-02-04T06:31:41.094Z,6.59
2017-02-04T06:32:41.079Z,6.56
2017-02-04T06:33:41.054Z,6.51
2017-02-04T06:34:41.039Z,6.44
2017-02-04T06:35:41.017Z,6.4
2017-02-04T06:36:41.005Z,6.33
2017-02-04T06:37:40.990Z,6.33
2017-02-04T06:38:40.572Z,6.32
2017-02-04T06:39:40.947Z,6.32
2017-02-04T06:40:40.926Z,6.3
2017-02-04T06:41:40.911Z,6.29
2017-02-04T06:42:40.888Z,6.26
2017-02-04T06:43:40.472Z,6.16
2017-02-04T06:44:40.455Z,6.21
2017-02-04T06:45:40.835Z,6.21
2017-02-04T06:46:40.814Z,6.25
2017-02-04T06:47:40.793Z,6.25
2017-02-04T06:48:40.771Z,6.16
2017-02-04T06:49:40.758Z,6.11
2017-02-04T06:50:40.736Z,6.09
2017-02-04T06:51:40.719Z,6.06
2017-02-04T06:52:40.701Z,6.06
2017-02-04T06:53:40.681Z,6
2017-02-04T06:54:40.664Z,5.95
2017-02-04T06:55:40.646Z,5.88
2017-02-04T06:56:40.627Z,6.04
2017-02-04T06:57:40.601Z,5.81
2017-02-04T06:58:40.197Z,5.98
2017-02-04T06:59:40.570Z,5.88
2017-02-04T07:00:40.552Z,5.88
2017-02-04T07:01:40.535Z,5.77
2017-02-04T07:02:40.514Z,5.85
2017-02-04T07:03:40.491Z,5.78
2017-02-04T07:04:40.480Z,5.78
2017-02-04T07:05:40.059Z,5.73
2017-02-04T07:06:40.439Z,5.71
2017-02-04T07:07:40.420Z,5.67
2017-02-04T07:08:40.400Z,5.68
2017-02-04T07:09:40.381Z,5.74
2017-02-04T07:10:40.361Z,5.71
2017-02-04T07:11:40.367Z,5.68
2017-02-04T07:12:40.321Z,5.66
2017-02-04T07:13:39.913Z,5.68
2017-02-04T07:14:40.287Z,5.71
2017-02-04T07:15:40.270Z,5.66
2017-02-04T07:16:40.251Z,5.67
2017-02-04T07:17:40.228Z,5.73
2017-02-04T07:18:40.218Z,5.71
2017-02-04T07:19:40.200Z,5.71
2017-02-04T07:20:40.185Z,5.57
2017-02-04T07:21:40.151Z,5.81
2017-02-04T07:22:40.139Z,5.75
2017-02-04T07:23:39.720Z,5.71
2017-02-04T07:24:40.102Z,5.68
2017-02-04T07:25:40.076Z,5.77
2017-02-04T07:26:40.062Z,5.81
2017-02-04T07:27:40.037Z,5.81
2017-02-04T07:28:40.030Z,5.82
2017-02-04T07:29:40.003Z,5.85
2017-02-04T07:30:39.986Z,5.77
2017-02-04T07:31:39.569Z,5.77
2017-02-04T07:32:39.155Z,5.78
2017-02-04T07:33:39.926Z,5.78
2017-02-04T07:34:39.903Z,5.81
2017-02-04T07:35:39.887Z,5.78
2017-02-04T07:36:39.867Z,5.75
2017-02-04T07:37:39.853Z,5.75
2017-02-04T07:38:39.441Z,5.7
2017-02-04T07:39:39.818Z,5.71
2017-02-04T07:40:39.791Z,5.74
2017-02-04T07:41:39.774Z,5.77
2017-02-04T07:42:39.759Z,5.77
2017-02-04T07:43:39.739Z,5.85
2017-02-04T07:44:39.720Z,5.89
2017-02-04T07:45:39.703Z,6
2017-02-04T07:46:39.297Z,5.98
2017-02-04T07:47:39.661Z,5.93
2017-02-04T07:48:39.644Z,5.96
2017-02-04T07:49:39.232Z,5.96
2017-02-04T07:50:39.606Z,6.06
2017-02-04T07:51:39.586Z,6.07
2017-02-04T07:52:39.569Z,6.07
2017-02-04T07:53:39.555Z,6.04
2017-02-04T07:54:39.527Z,6.07
2017-02-04T07:55:39.511Z,6.03
2017-02-04T07:56:39.496Z,6.04
2017-02-04T07:57:39.474Z,6.07
2017-02-04T07:58:39.455Z,5.96
2017-02-04T07:59:39.078Z,6.03
2017-02-04T08:00:39.419Z,6.07
2017-02-04T08:01:39.395Z,6.07
2017-02-04T08:02:39.376Z,6.16
2017-02-04T08:03:39.365Z,6.09
2017-02-04T08:04:39.339Z,6.09
2017-02-04T08:05:39.320Z,6.11
2017-02-04T08:06:39.366Z,6.1
2017-02-04T08:07:39.299Z,6.22
2017-02-04T08:08:39.261Z,6.32
2017-02-04T08:09:39.255Z,6.33
2017-02-04T08:10:39.235Z,6.35
2017-02-04T08:11:39.213Z,6.33
2017-02-04T08:12:39.188Z,6.43
2017-02-04T08:13:39.167Z,6.43
2017-02-04T08:14:39.151Z,6.5
2017-02-04T08:15:39.160Z,6.36
2017-02-04T08:16:39.117Z,6.51
2017-02-04T08:17:39.092Z,6.53
2017-02-04T08:18:39.081Z,6.51
2017-02-04T08:19:39.057Z,6.46
2017-02-04T08:20:39.040Z,6.58
2017-02-04T08:21:39.014Z,6.5
2017-02-04T08:22:39.004Z,6.51
2017-02-04T08:23:38.991Z,6.65
2017-02-04T08:24:38.569Z,6.73
2017-02-04T08:25:38.953Z,6.69
2017-02-04T08:26:38.954Z,6.76
2017-02-04T08:27:38.907Z,6.76
2017-02-04T08:28:38.904Z,6.72
2017-02-04T08:29:38.869Z,6.69
2017-02-04T08:30:38.846Z,6.73
2017-02-04T08:31:38.863Z,6.68
2017-02-04T08:32:38.418Z,6.69
2017-02-04T08:33:38.790Z,6.79
2017-02-04T08:34:38.778Z,6.76
2017-02-04T08:35:38.789Z,6.86
2017-02-04T08:36:38.376Z,6.8
2017-02-04T08:37:38.733Z,6.86
2017-02-04T08:38:38.699Z,6.98
2017-02-04T08:39:38.677Z,6.95
2017-02-04T08:40:38.661Z,7.02
2017-02-04T08:41:38.639Z,6.9
2017-02-04T08:42:38.626Z,6.95
2017-02-04T08:43:38.609Z,7.01
2017-02-04T08:44:38.193Z,7.05
2017-02-04T08:45:38.568Z,6.97
2017-02-04T08:46:38.555Z,7.08
2017-02-04T08:47:38.538Z,7.08
2017-02-04T08:48:38.530Z,7.19
2017-02-04T08:49:38.495Z,7.19
2017-02-04T08:50:38.086Z,7.16
2017-02-04T08:51:38.063Z,7.26
2017-02-04T08:52:38.440Z,7.27
2017-02-04T08:53:38.426Z,7.24
2017-02-04T08:54:38.438Z,7.27
2017-02-04T08:55:38.385Z,7.32
2017-02-04T08:56:38.366Z,7.35
2017-02-04T08:57:38.352Z,7.44
2017-02-04T08:58:37.939Z,7.42
2017-02-04T08:59:38.315Z,7.42
2017-02-04T09:00:38.302Z,7.45
2017-02-04T09:01:38.275Z,7.44
2017-02-04T09:02:38.258Z,7.47
2017-02-04T09:03:38.240Z,7.42
2017-02-04T09:04:38.232Z,7.45
2017-02-04T09:05:38.209Z,7.49
2017-02-04T09:06:38.188Z,7.47
2017-02-04T09:07:38.168Z,7.52
2017-02-04T09:08:38.151Z,7.55
2017-02-04T09:09:38.135Z,7.59
2017-02-04T09:10:38.119Z,7.6
2017-02-04T09:11:38.100Z,7.52
2017-02-04T09:12:37.686Z,7.6
2017-02-04T09:13:38.066Z,7.6
2017-02-04T09:14:38.051Z,7.71
2017-02-04T09:15:38.035Z,7.71
2017-02-04T09:16:38.017Z,7.77
2017-02-04T09:17:37.996Z,7.77
2017-02-04T09:18:37.983Z,7.72
2017-02-04T09:19:37.965Z,7.77
2017-02-04T09:20:37.948Z,7.78
2017-02-04T09:21:37.956Z,7.72
2017-02-04T09:22:37.529Z,7.71
2017-02-04T09:23:37.515Z,7.82
2017-02-04T09:24:37.884Z,7.81
2017-02-04T09:25:37.861Z,7.84
2017-02-04T09:26:37.843Z,7.81
2017-02-04T09:27:37.829Z,7.85
2017-02-04T09:28:37.813Z,7.89
2017-02-04T09:29:37.399Z,7.9
2017-02-04T09:30:37.777Z,8
2017-02-04T09:31:37.761Z,8.03
2017-02-04T09:32:37.750Z,8.07
2017-02-04T09:33:37.771Z,8.11
2017-02-04T09:34:37.717Z,8.14
2017-02-04T09:35:37.708Z,8.26
2017-02-04T09:36:37.681Z,8.32
2017-02-04T09:37:37.678Z,8.32
2017-02-04T09:38:37.666Z,8.35
2017-02-04T09:39:37.635Z,8.44
2017-02-04T09:40:37.612Z,8.39
2017-02-04T09:41:37.216Z,8.44
2017-02-04T09:42:37.581Z,8.57
2017-02-04T09:43:37.569Z,8.62
2017-02-04T09:44:37.551Z,8.63
2017-02-04T09:45:37.538Z,8.63
2017-02-04T09:46:37.520Z,8.58
2017-02-04T09:47:37.502Z,8.71
2017-02-04T09:48:37.491Z,8.73
2017-02-04T09:49:37.471Z,8.73
2017-02-04T09:50:37.104Z,8.87
2017-02-04T09:51:37.467Z,8.79
2017-02-04T09:52:37.033Z,8.72
2017-02-04T09:53:37.017Z,8.73
2017-02-04T09:54:37.000Z,8.71
2017-02-04T09:55:37.376Z,8.76
2017-02-04T09:56:37.360Z,8.79
2017-02-04T09:57:36.555Z,8.93
2017-02-04T09:58:37.334Z,8.9
2017-02-04T09:59:37.326Z,8.94
2017-02-04T10:00:37.303Z,8.99
2017-02-04T10:01:37.289Z,8.96
2017-02-04T10:02:37.272Z,8.97
2017-02-04T10:03:37.270Z,8.99
2017-02-04T10:04:36.849Z,8.93
2017-02-04T10:05:37.227Z,9.01
2017-02-04T10:06:37.214Z,9.04
2017-02-04T10:07:37.210Z,9.09
2017-02-04T10:08:37.183Z,9.09
2017-02-04T10:09:37.170Z,9.1
2017-02-04T10:10:36.757Z,9.13
2017-02-04T10:11:37.138Z,9.16
2017-02-04T10:12:37.119Z,9.25
2017-02-04T10:13:37.106Z,9.27
2017-02-04T10:14:37.090Z,9.34
2017-02-04T10:15:36.682Z,9.32
2017-02-04T10:16:37.060Z,9.4
2017-02-04T10:17:37.047Z,9.43
2017-02-04T10:18:37.037Z,9.48
2017-02-04T10:19:37.019Z,9.53
2017-02-04T10:20:37.011Z,9.75
2017-02-04T10:21:36.990Z,9.7
2017-02-04T10:22:36.977Z,9.63
2017-02-04T10:23:36.964Z,9.73
2017-02-04T10:24:36.947Z,9.79
2017-02-04T10:25:36.932Z,9.88
2017-02-04T10:26:36.921Z,9.97
2017-02-04T10:27:36.913Z,10.04
2017-02-04T10:28:36.895Z,10.21
2017-02-04T10:29:36.927Z,10.3
2017-02-04T10:30:36.880Z,10.33
2017-02-04T10:31:36.464Z,10.28
2017-02-04T10:32:36.443Z,10.34
2017-02-04T10:33:36.829Z,10.3
2017-02-04T10:34:36.813Z,10.4
2017-02-04T10:35:36.801Z,10.28
2017-02-04T10:36:36.781Z,10.19
2017-02-04T10:37:36.376Z,9.99
2017-02-04T10:38:36.758Z,10.06
2017-02-04T10:39:36.350Z,9.97
2017-02-04T10:40:36.734Z,9.97
2017-02-04T10:41:36.719Z,9.82
2017-02-04T10:42:36.712Z,9.64
2017-02-04T10:43:36.694Z,9.56
2017-02-04T10:44:36.674Z,9.61
2017-02-04T10:45:36.662Z,9.57
2017-02-04T10:46:36.650Z,9.6
2017-02-04T10:47:36.659Z,9.61
2017-02-04T10:48:36.624Z,9.6
2017-02-04T10:49:36.617Z,9.61
2017-02-04T10:50:36.592Z,9.6
2017-02-04T10:51:36.604Z,9.58
2017-02-04T10:52:36.565Z,9.67
2017-02-04T10:53:36.554Z,9.85
2017-02-04T10:54:36.571Z,9.86
2017-02-04T10:55:36.527Z,9.96
2017-02-04T10:56:36.528Z,9.88
2017-02-04T10:57:36.502Z,10.06
2017-02-04T10:58:36.091Z,10.04
2017-02-04T10:59:36.469Z,10
2017-02-04T11:00:36.455Z,10.06
2017-02-04T11:01:36.451Z,9.94
2017-02-04T11:02:36.438Z,9.93
2017-02-04T11:03:36.416Z,9.99
2017-02-04T11:04:36.012Z,9.99
2017-02-04T11:05:36.395Z,10.07
2017-02-04T11:06:36.382Z,10.19
2017-02-04T11:07:35.984Z,10.22
2017-02-04T11:08:35.952Z,10.28
2017-02-04T11:09:35.940Z,10.26
2017-02-04T11:10:35.935Z,10.17
2017-02-04T11:11:35.914Z,10.14
2017-02-04T11:12:36.338Z,10.07
2017-02-04T11:13:35.903Z,10.06
2017-02-04T11:14:36.273Z,10.01
2017-02-04T11:15:36.262Z,9.91
2017-02-04T11:16:36.245Z,9.88
2017-02-04T11:17:36.231Z,9.85
2017-02-04T11:18:36.229Z,9.82
2017-02-04T11:19:35.809Z,9.82
2017-02-04T11:20:36.201Z,9.78
2017-02-04T11:21:36.184Z,9.79
2017-02-04T11:22:36.165Z,9.79
2017-02-04T11:23:35.752Z,9.71
2017-02-04T11:24:36.140Z,9.81
2017-02-04T11:25:36.130Z,9.79
2017-02-04T11:26:35.721Z,9.81
2017-02-04T11:27:35.703Z,9.71
2017-02-04T11:28:35.693Z,9.71
2017-02-04T11:29:36.070Z,9.73
2017-02-04T11:30:35.667Z,9.75
2017-02-04T11:31:36.042Z,9.75
2017-02-04T11:32:36.028Z,9.71
2017-02-04T11:33:36.020Z,9.73
2017-02-04T11:34:35.998Z,9.79
2017-02-04T11:35:35.987Z,9.76
2017-02-04T11:36:35.972Z,9.78
2017-02-04T11:37:35.968Z,9.81
2017-02-04T11:38:35.549Z,9.83
2017-02-04T11:39:35.933Z,9.89
2017-02-04T11:40:35.914Z,9.94
2017-02-04T11:41:35.904Z,9.93
2017-02-04T11:42:35.886Z,9.89
2017-02-04T11:43:35.479Z,9.96
2017-02-04T11:44:35.863Z,9.96
2017-02-04T11:45:35.850Z,9.96
2017-02-04T11:46:35.842Z,9.96
2017-02-04T11:47:35.811Z,10.07
2017-02-04T11:48:35.800Z,10.06
2017-02-04T11:49:35.792Z,10.01
2017-02-04T11:50:35.774Z,9.99
2017-02-04T11:51:35.767Z,10.15
2017-02-04T11:52:35.746Z,10.21
2017-02-04T11:53:35.740Z,10.22
2017-02-04T11:54:35.720Z,10.19
2017-02-04T11:55:35.311Z,10.17
2017-02-04T11:56:35.695Z,10.21
2017-02-04T11:57:35.674Z,10.24
2017-02-04T11:58:35.669Z,10.19
2017-02-04T11:59:35.650Z,10.26
2017-02-04T12:00:35.638Z,10.19
2017-02-04T12:01:35.620Z,10.32
2017-02-04T12:02:35.608Z,10.33
2017-02-04T12:03:35.600Z,10.34
2017-02-04T12:04:35.584Z,10.3
2017-02-04T12:05:35.569Z,10.36
2017-02-04T12:06:35.553Z,10.25
2017-02-04T12:07:35.551Z,10.25
2017-02-04T12:08:35.529Z,10.34
2017-02-04T12:09:35.516Z,10.22
2017-02-04T12:10:35.496Z,10.37
2017-02-04T12:11:35.491Z,10.37
2017-02-04T12:12:35.282Z,10.34
2017-02-04T12:13:35.462Z,10.39
2017-02-04T12:14:35.451Z,10.36
2017-02-04T12:15:35.041Z,10.28
2017-02-04T12:16:35.419Z,10.43
2017-02-04T12:17:35.402Z,10.43
2017-02-04T12:18:35.412Z,10.33
2017-02-04T12:19:35.384Z,10.3
2017-02-04T12:20:35.360Z,10.3
2017-02-04T12:21:35.349Z,10.26
2017-02-04T12:22:35.338Z,10.32
2017-02-04T12:23:35.329Z,10.32
2017-02-04T12:24:35.315Z,10.26
2017-02-04T12:25:35.302Z,10.19
2017-02-04T12:26:35.283Z,10.32
2017-02-04T12:27:35.273Z,10.32
2017-02-04T12:28:35.264Z,10.25
2017-02-04T12:29:35.240Z,10.32
2017-02-04T12:30:35.236Z,10.25
2017-02-04T12:31:35.213Z,10.33
2017-02-04T12:32:34.806Z,10.32
2017-02-04T12:33:35.186Z,10.32
2017-02-04T12:34:35.172Z,10.26
2017-02-04T12:35:35.159Z,10.26
2017-02-04T12:36:35.147Z,10.24
2017-02-04T12:37:35.134Z,10.32
2017-02-04T12:38:35.113Z,10.32
2017-02-04T12:39:35.105Z,10.34
2017-02-04T12:40:35.089Z,10.26
2017-02-04T12:41:35.072Z,10.26
2017-02-04T12:42:35.063Z,10.4
2017-02-04T12:43:35.048Z,10.28
2017-02-04T12:44:35.038Z,10.36
2017-02-04T12:45:35.031Z,10.33
2017-02-04T12:46:35.008Z,10.22
2017-02-04T12:47:34.996Z,10.22
2017-02-04T12:48:34.980Z,10.24
2017-02-04T12:49:35.172Z,10.21
2017-02-04T12:50:34.952Z,10.21
2017-02-04T12:51:34.937Z,10.25
2017-02-04T12:52:34.923Z,10.14
2017-02-04T12:53:34.912Z,10.19
2017-02-04T12:54:34.897Z,10.19
2017-02-04T12:55:34.881Z,10.24
2017-02-04T12:56:34.871Z,10.26
2017-02-04T12:57:34.857Z,10.37
2017-02-04T12:58:34.837Z,10.39
2017-02-04T12:59:34.833Z,10.43
2017-02-04T13:00:34.814Z,10.43
2017-02-04T13:01:34.435Z,10.42
2017-02-04T13:02:34.783Z,10.51
2017-02-04T13:03:34.775Z,10.46
2017-02-04T13:04:34.753Z,10.47
2017-02-04T13:05:34.747Z,10.43
2017-02-04T13:06:34.735Z,10.4
2017-02-04T13:07:34.714Z,10.42
2017-02-04T13:08:34.697Z,10.34
2017-02-04T13:09:34.724Z,10.37
2017-02-04T13:10:34.684Z,10.39
2017-02-04T13:11:34.275Z,10.42
2017-02-04T13:12:34.645Z,10.55
2017-02-04T13:13:34.628Z,10.51
2017-02-04T13:14:34.623Z,10.53
2017-02-04T13:15:34.609Z,10.47
2017-02-04T13:16:34.590Z,10.46
2017-02-04T13:17:34.578Z,10.51